createdAt,value
2023-06-11T00:00:14.379Z,18.32
2023-06-11T00:02:46.102Z,18.29
2023-06-11T00:05:17.826Z,18.26
2023-06-11T00:07:47.881Z,18.33
2023-06-11T00:10:18.716Z,18.25
2023-06-11T00:12:48.773Z,18.22
2023-06-11T00:15:20.725Z,18.16
2023-06-11T00:17:50.696Z,18.04
2023-06-11T00:20:20.533Z,17.90
2023-06-11T00:22:50.646Z,17.80
2023-06-11T00:25:20.823Z,17.67
2023-06-11T00:27:50.666Z,17.73
2023-06-11T00:30:20.817Z,17.57
2023-06-11T00:32:50.692Z,17.51
2023-06-11T00:35:20.961Z,17.40
2023-06-11T00:37:52.340Z,17.41
2023-06-11T00:40:22.542Z,17.46
2023-06-11T00:42:53.085Z,17.50
2023-06-11T00:45:24.760Z,17.54
2023-06-11T00:47:54.882Z,17.61
2023-06-11T00:50:25.212Z,17.61
2023-06-11T00:52:55.293Z,17.63
2023-06-11T00:55:25.717Z,17.60
2023-06-11T00:57:55.510Z,17.51
2023-06-11T01:00:25.364Z,17.47
2023-06-11T01:03:10.102Z,17.47
2023-06-11T01:05:46.486Z,17.53
2023-06-11T01:08:19.190Z,17.50
2023-06-11T01:10:52.911Z,17.50
2023-06-11T01:13:23.262Z,17.47
2023-06-11T01:16:00.308Z,17.49
2023-06-11T01:18:40.169Z,17.57
2023-06-11T01:21:15.898Z,17.46
2023-06-11T01:24:11.428Z,17.46
2023-06-11T01:26:50.807Z,17.40
2023-06-11T01:29:24.906Z,17.37
2023-06-11T01:31:58.702Z,17.27
2023-06-11T01:34:29.670Z,17.26
2023-06-11T01:37:02.415Z,17.30
2023-06-11T01:39:32.830Z,17.33
2023-06-11T01:42:07.946Z,17.33
2023-06-11T01:44:38.510Z,17.29
2023-06-11T01:47:08.874Z,17.29
2023-06-11T01:49:38.477Z,17.27
2023-06-11T01:52:09.165Z,17.24
2023-06-11T01:54:39.223Z,17.26
2023-06-11T01:57:09.349Z,17.31
2023-06-11T01:59:39.640Z,17.24
2023-06-11T02:02:09.703Z,17.22
2023-06-11T02:04:39.580Z,17.18
2023-06-11T02:07:09.606Z,17.16
2023-06-11T02:09:39.585Z,17.18
2023-06-11T02:12:10.703Z,17.10
2023-06-11T02:14:41.103Z,17.05
2023-06-11T02:17:12.239Z,17.10
2023-06-11T02:19:42.278Z,17.10
2023-06-11T02:22:13.262Z,17.09
2023-06-11T02:24:43.609Z,17.02
2023-06-11T02:27:13.447Z,16.90
2023-06-11T02:29:43.363Z,16.79
2023-06-11T02:32:13.866Z,16.62
2023-06-11T02:34:44.048Z,16.48
2023-06-11T02:37:14.414Z,16.37
2023-06-11T02:39:44.150Z,16.32
2023-06-11T02:42:14.227Z,16.31
2023-06-11T02:44:44.374Z,16.25
2023-06-11T02:47:14.543Z,16.27
2023-06-11T02:49:44.650Z,16.14
2023-06-11T02:52:14.700Z,15.90
2023-06-11T02:54:44.827Z,15.69
2023-06-11T02:57:15.154Z,15.35
2023-06-11T02:59:45.223Z,15.08
2023-06-11T03:02:16.427Z,14.99
2023-06-11T03:04:46.704Z,14.99
2023-06-11T03:07:16.834Z,14.91
2023-06-11T03:09:46.919Z,14.84
2023-06-11T03:12:17.693Z,14.73
2023-06-11T03:14:48.249Z,14.64
2023-06-11T03:17:18.537Z,14.51
2023-06-11T03:19:48.681Z,14.38
2023-06-11T03:22:18.774Z,14.44
2023-06-11T03:24:49.090Z,14.37
2023-06-11T03:27:35.295Z,14.33
2023-06-11T03:30:05.606Z,14.26
2023-06-11T03:32:38.542Z,14.22
2023-06-11T03:35:10.017Z,14.19
2023-06-11T03:37:40.792Z,14.22
2023-06-11T03:40:16.144Z,14.22
2023-06-11T03:42:47.057Z,14.16
2023-06-11T03:45:17.270Z,14.08
2023-06-11T03:47:47.511Z,13.95
2023-06-11T03:50:17.767Z,13.69
2023-06-11T03:52:48.045Z,13.41
2023-06-11T03:55:18.543Z,13.17
2023-06-11T03:57:48.309Z,13.08
2023-06-11T04:00:17.737Z,13.07
2023-06-11T04:02:47.944Z,12.89
2023-06-11T04:05:20.692Z,12.77
2023-06-11T04:07:57.163Z,12.84
2023-06-11T04:10:27.988Z,12.83
2023-06-11T04:12:58.254Z,12.87
2023-06-11T04:15:28.379Z,13.04
2023-06-11T04:18:00.586Z,13.18
2023-06-11T04:20:30.781Z,13.15
2023-06-11T04:23:00.791Z,13.06
2023-06-11T04:25:33.861Z,13.13
2023-06-11T04:28:05.927Z,13.20
2023-06-11T04:30:36.320Z,13.31
2023-06-11T04:33:06.883Z,13.13
2023-06-11T04:35:37.711Z,12.99
2023-06-11T04:38:07.948Z,12.92
2023-06-11T04:40:40.693Z,12.96
2023-06-11T04:43:12.041Z,13.03
2023-06-11T04:45:42.304Z,13.06
2023-06-11T04:48:12.568Z,13.02
2023-06-11T04:50:42.980Z,12.99
2023-06-11T04:53:15.140Z,13.02
2023-06-11T04:55:45.447Z,13.02
2023-06-11T04:58:15.598Z,13.13
2023-06-11T05:00:48.673Z,13.24
2023-06-11T05:03:19.666Z,13.15
2023-06-11T05:05:54.367Z,13.25
2023-06-11T05:08:30.572Z,13.14
2023-06-11T05:11:03.096Z,13.15
2023-06-11T05:13:35.653Z,13.14
2023-06-11T05:16:08.279Z,13.34
2023-06-11T05:18:39.133Z,13.33
2023-06-11T05:21:11.563Z,13.51
2023-06-11T05:23:41.862Z,13.47
2023-06-11T05:26:16.204Z,13.28
2023-06-11T05:28:50.271Z,13.17
2023-06-11T05:31:23.872Z,13.04
2023-06-11T05:33:54.517Z,12.97
2023-06-11T05:36:25.399Z,13.11
2023-06-11T05:38:56.814Z,13.24
2023-06-11T05:41:28.144Z,12.99
2023-06-11T05:43:59.842Z,12.94
2023-06-11T05:46:31.243Z,13.06
2023-06-11T05:49:02.126Z,13.33
2023-06-11T05:51:33.212Z,13.23
2023-06-11T05:54:05.418Z,13.08
2023-06-11T05:56:37.748Z,13.14
2023-06-11T05:59:07.813Z,13.11
2023-06-11T06:01:37.359Z,12.94
2023-06-11T06:04:08.060Z,12.87
2023-06-11T06:06:38.414Z,12.76
2023-06-11T06:09:08.546Z,12.80
2023-06-11T06:11:39.508Z,12.73
2023-06-11T06:14:09.795Z,12.60
2023-06-11T06:16:39.825Z,12.45
2023-06-11T06:19:14.351Z,12.41
2023-06-11T06:21:44.558Z,12.28
2023-06-11T06:24:14.727Z,12.14
2023-06-11T06:26:46.296Z,11.98
2023-06-11T06:29:16.799Z,12.14
2023-06-11T06:31:47.068Z,12.08
2023-06-11T06:34:17.266Z,11.83
2023-06-11T06:36:47.606Z,11.67
2023-06-11T06:39:17.977Z,11.64
2023-06-11T06:41:48.494Z,11.69
2023-06-11T06:44:23.937Z,11.73
2023-06-11T06:46:55.921Z,11.71
2023-06-11T06:49:26.980Z,11.63
2023-06-11T06:51:57.093Z,11.59
2023-06-11T06:54:28.127Z,11.61
2023-06-11T06:56:58.700Z,11.74
2023-06-11T06:59:29.297Z,11.66
2023-06-11T07:01:59.615Z,11.80
2023-06-11T07:04:30.731Z,12.02
2023-06-11T07:07:01.703Z,11.85
2023-06-11T07:09:31.711Z,12.04
2023-06-11T07:12:02.424Z,11.87
2023-06-11T07:14:33.103Z,11.75
2023-06-11T07:17:03.872Z,11.63
2023-06-11T07:19:34.042Z,11.75
2023-06-11T07:22:04.208Z,11.69
2023-06-11T07:24:38.261Z,11.64
2023-06-11T07:27:09.789Z,11.88
2023-06-11T07:29:41.442Z,12.10
2023-06-11T07:32:11.926Z,12.22
2023-06-11T07:34:42.621Z,12.24
2023-06-11T07:37:13.204Z,12.05
2023-06-11T07:39:43.413Z,11.85
2023-06-11T07:42:13.923Z,11.77
2023-06-11T07:44:44.172Z,11.70
2023-06-11T07:47:14.420Z,11.74
2023-06-11T07:49:45.225Z,12.02
2023-06-11T07:52:16.642Z,12.05
2023-06-11T07:54:47.181Z,11.95
2023-06-11T07:57:18.285Z,12.08
2023-06-11T07:59:48.557Z,12.26
2023-06-11T08:02:19.235Z,12.36
2023-06-11T08:04:49.202Z,12.38
2023-06-11T08:07:19.273Z,12.29
2023-06-11T08:09:49.384Z,12.15
2023-06-11T08:12:19.713Z,11.94
2023-06-11T08:14:49.796Z,11.77
2023-06-11T08:17:19.647Z,11.71
2023-06-11T08:19:49.771Z,11.90
2023-06-11T08:22:19.595Z,11.84
2023-06-11T08:24:49.630Z,11.88
2023-06-11T08:27:19.533Z,12.14
2023-06-11T08:29:49.363Z,12.05
2023-06-11T08:32:19.573Z,11.85
2023-06-11T08:34:49.722Z,11.80
2023-06-11T08:37:19.703Z,11.88
2023-06-11T08:39:49.531Z,12.18
2023-06-11T08:42:19.892Z,12.29
2023-06-11T08:44:50.619Z,12.12
2023-06-11T08:47:25.172Z,12.04
2023-06-11T08:49:58.053Z,11.99
2023-06-11T08:52:31.758Z,11.88
2023-06-11T08:55:01.956Z,11.78
2023-06-11T08:57:33.770Z,11.81
2023-06-11T09:00:03.932Z,11.75
2023-06-11T09:02:34.269Z,12.02
2023-06-11T09:05:08.975Z,12.01
2023-06-11T09:07:39.172Z,11.97
2023-06-11T09:10:13.269Z,11.97
2023-06-11T09:12:43.671Z,12.02
2023-06-11T09:15:14.985Z,12.17
2023-06-11T09:17:48.723Z,12.32
2023-06-11T09:20:20.968Z,12.32
2023-06-11T09:22:52.974Z,12.36
2023-06-11T09:25:23.034Z,12.20
2023-06-11T09:27:53.215Z,12.21
2023-06-11T09:30:23.343Z,12.21
2023-06-11T09:32:53.506Z,12.15
2023-06-11T09:35:23.764Z,12.22
2023-06-11T09:37:54.959Z,12.38
2023-06-11T09:40:25.667Z,12.43
2023-06-11T09:42:56.258Z,12.49
2023-06-11T09:45:27.263Z,12.52
2023-06-11T09:47:57.701Z,12.53
2023-06-11T09:50:28.449Z,12.38
2023-06-11T09:53:00.294Z,12.43
2023-06-11T09:55:30.888Z,12.49
2023-06-11T09:58:01.268Z,12.50
2023-06-11T10:00:32.139Z,12.49
2023-06-11T10:03:02.437Z,12.48
2023-06-11T10:05:33.350Z,12.48
2023-06-11T10:08:06.372Z,12.49
2023-06-11T10:10:43.888Z,12.50
2023-06-11T10:13:14.344Z,12.49
2023-06-11T10:15:44.577Z,12.39
2023-06-11T10:18:16.641Z,12.43
2023-06-11T10:20:57.852Z,12.50
2023-06-11T10:23:40.783Z,12.52
2023-06-11T10:26:12.326Z,12.50
2023-06-11T10:28:46.955Z,12.43
2023-06-11T10:31:44.932Z,12.35
2023-06-11T10:34:17.255Z,12.28
2023-06-11T10:36:47.365Z,12.20
2023-06-11T10:39:26.114Z,12.20
2023-06-11T10:42:03.771Z,11.97
2023-06-11T10:44:34.254Z,12.08
2023-06-11T10:47:04.725Z,12.05
2023-06-11T10:49:34.907Z,12.01
2023-06-11T10:52:05.587Z,12.04
2023-06-11T10:54:37.144Z,12.08
2023-06-11T10:57:08.451Z,12.18
2023-06-11T10:59:39.234Z,12.12
2023-06-11T11:02:16.143Z,12.10
2023-06-11T11:04:55.686Z,12.05
2023-06-11T11:07:36.313Z,12.02
2023-06-11T11:10:08.163Z,11.98
2023-06-11T11:12:42.180Z,12.02
2023-06-11T11:15:14.102Z,12.11
2023-06-11T11:17:45.566Z,12.18
2023-06-11T11:20:22.154Z,12.21
2023-06-11T11:22:57.829Z,12.29
2023-06-11T11:25:32.327Z,12.29
2023-06-11T11:28:02.395Z,12.28
2023-06-11T11:30:32.863Z,12.31
2023-06-11T11:33:03.203Z,12.32
2023-06-11T11:35:33.455Z,12.31
2023-06-11T11:38:05.711Z,12.32
2023-06-11T11:40:39.993Z,12.25
2023-06-11T11:43:15.227Z,12.08
2023-06-11T11:45:49.894Z,12.02
2023-06-11T11:48:20.344Z,12.10
2023-06-11T11:51:08.166Z,12.11
2023-06-11T11:53:39.705Z,12.06
2023-06-11T11:56:10.451Z,12.02
2023-06-11T11:58:42.923Z,12.14
2023-06-11T12:01:24.573Z,12.18
2023-06-11T12:04:07.104Z,12.11
2023-06-11T12:06:37.895Z,12.02
2023-06-11T12:09:08.001Z,12.10
2023-06-11T12:11:45.470Z,12.32
2023-06-11T12:14:22.239Z,12.24
2023-06-11T12:16:52.499Z,12.22
2023-06-11T12:19:23.818Z,12.25
2023-06-11T12:21:56.234Z,12.31
2023-06-11T12:24:26.942Z,12.29
2023-06-11T12:26:57.191Z,12.45
2023-06-11T12:29:27.577Z,12.32
2023-06-11T12:31:57.757Z,12.43
2023-06-11T12:34:27.919Z,12.55
2023-06-11T12:36:58.406Z,12.67
2023-06-11T12:39:29.192Z,12.63
2023-06-11T12:41:59.350Z,12.49
2023-06-11T12:44:29.294Z,12.55
2023-06-11T12:46:59.721Z,12.69
2023-06-11T12:49:31.748Z,12.76
2023-06-11T12:52:02.258Z,12.62
2023-06-11T12:54:32.383Z,12.50
2023-06-11T12:57:02.534Z,12.38
2023-06-11T12:59:32.899Z,12.38
2023-06-11T13:02:03.129Z,12.60
2023-06-11T13:04:33.702Z,12.55
2023-06-11T13:07:03.399Z,12.52
2023-06-11T13:09:33.530Z,12.42
2023-06-11T13:12:04.508Z,12.36
2023-06-11T13:14:34.421Z,12.35
2023-06-11T13:17:04.627Z,12.31
2023-06-11T13:19:34.732Z,12.20
2023-06-11T13:22:04.730Z,12.18
2023-06-11T13:24:54.812Z,12.29
2023-06-11T13:27:25.156Z,12.43
2023-06-11T13:29:55.280Z,12.36
2023-06-11T13:32:25.675Z,12.35
2023-06-11T13:34:56.197Z,12.36
2023-06-11T13:37:26.343Z,12.38
2023-06-11T13:39:56.547Z,12.42
2023-06-11T13:42:26.769Z,12.55
2023-06-11T13:44:56.592Z,12.59
2023-06-11T13:47:27.009Z,12.76
2023-06-11T13:49:57.172Z,12.82
2023-06-11T13:52:27.360Z,12.72
2023-06-11T13:54:57.484Z,12.67
2023-06-11T13:57:30.091Z,12.66
2023-06-11T14:00:01.628Z,12.73
2023-06-11T14:02:41.306Z,12.72
2023-06-11T14:05:11.665Z,12.73
2023-06-11T14:07:43.370Z,12.75
2023-06-11T14:10:14.008Z,12.73
2023-06-11T14:12:44.634Z,12.89
2023-06-11T14:15:15.444Z,12.89
2023-06-11T14:17:46.186Z,12.87
2023-06-11T14:20:18.071Z,12.92
2023-06-11T14:22:49.330Z,12.97
2023-06-11T14:25:19.522Z,12.93
2023-06-11T14:27:49.775Z,13.02
2023-06-11T14:30:21.526Z,12.99
2023-06-11T14:32:51.833Z,12.93
2023-06-11T14:35:22.051Z,13.13
2023-06-11T14:37:54.084Z,12.99
2023-06-11T14:40:27.390Z,12.99
2023-06-11T14:42:57.487Z,12.92
2023-06-11T14:45:27.654Z,13.06
2023-06-11T14:47:58.112Z,13.33
2023-06-11T14:50:28.265Z,13.24
2023-06-11T14:52:58.416Z,13.38
2023-06-11T14:55:28.474Z,13.44
2023-06-11T14:57:58.348Z,13.58
2023-06-11T15:00:28.396Z,13.76
2023-06-11T15:02:58.692Z,13.43
2023-06-11T15:05:28.745Z,13.50
2023-06-11T15:07:58.618Z,13.76
2023-06-11T15:10:29.732Z,13.94
2023-06-11T15:12:59.869Z,14.04
2023-06-11T15:15:29.916Z,14.15
2023-06-11T15:18:00.174Z,14.32
2023-06-11T15:20:30.305Z,14.43
2023-06-11T15:23:00.447Z,14.37
2023-06-11T15:25:30.567Z,14.17
2023-06-11T15:28:01.045Z,14.16
2023-06-11T15:30:31.226Z,13.89
2023-06-11T15:33:01.375Z,13.83
2023-06-11T15:35:31.795Z,13.78
2023-06-11T15:38:03.304Z,13.88
2023-06-11T15:40:36.073Z,14.05
2023-06-11T15:43:06.141Z,14.02
2023-06-11T15:45:36.216Z,14.23
2023-06-11T15:48:06.776Z,14.08
2023-06-11T15:50:36.602Z,14.04
2023-06-11T15:53:06.816Z,14.17
2023-06-11T15:55:37.129Z,13.98
2023-06-11T15:58:08.961Z,13.88
2023-06-11T16:00:39.336Z,13.78
2023-06-11T16:03:09.578Z,13.75
2023-06-11T16:05:40.570Z,13.85
2023-06-11T16:08:11.937Z,13.83
2023-06-11T16:10:42.005Z,13.82
2023-06-11T16:13:12.149Z,13.95
2023-06-11T16:15:42.465Z,13.94
2023-06-11T16:18:13.446Z,13.88
2023-06-11T16:20:43.653Z,13.88
2023-06-11T16:23:13.773Z,13.85
2023-06-11T16:25:43.742Z,13.92
2023-06-11T16:28:13.992Z,13.81
2023-06-11T16:30:44.149Z,13.76
2023-06-11T16:33:14.382Z,13.79
2023-06-11T16:35:44.550Z,13.86
2023-06-11T16:38:17.249Z,13.86
2023-06-11T16:40:47.441Z,13.78
2023-06-11T16:43:17.595Z,13.82
2023-06-11T16:45:47.702Z,13.78
2023-06-11T16:48:18.113Z,13.81
2023-06-11T16:50:47.869Z,13.74
2023-06-11T16:53:17.898Z,13.74
2023-06-11T16:55:48.101Z,13.76
2023-06-11T16:58:18.328Z,13.72
2023-06-11T17:00:48.472Z,13.75
2023-06-11T17:03:19.037Z,13.68
2023-06-11T17:05:48.726Z,13.71
2023-06-11T17:08:19.660Z,13.68
2023-06-11T17:10:49.824Z,13.69
2023-06-11T17:13:19.712Z,13.68
2023-06-11T17:15:49.653Z,13.66
2023-06-11T17:18:20.808Z,13.68
2023-06-11T17:20:50.754Z,13.68
2023-06-11T17:23:20.898Z,13.64
2023-06-11T17:25:51.138Z,13.71
2023-06-11T17:28:21.253Z,13.79
2023-06-11T17:30:51.444Z,13.86
2023-06-11T17:33:22.468Z,13.86
2023-06-11T17:35:53.924Z,13.85
2023-06-11T17:38:24.171Z,13.94
2023-06-11T17:40:54.244Z,13.90
2023-06-11T17:43:24.853Z,14.08
2023-06-11T17:45:55.104Z,14.10
2023-06-11T17:48:25.665Z,14.09
2023-06-11T17:50:55.737Z,14.02
2023-06-11T17:53:25.768Z,14.10
2023-06-11T17:55:55.874Z,14.16
2023-06-11T17:58:25.875Z,14.29
2023-06-11T18:00:56.052Z,14.26
2023-06-11T18:03:26.295Z,14.40
2023-06-11T18:05:56.471Z,14.44
2023-06-11T18:08:26.596Z,14.50
2023-06-11T18:10:58.821Z,14.50
2023-06-11T18:13:28.891Z,14.41
2023-06-11T18:15:58.985Z,14.51
2023-06-11T18:18:29.353Z,14.48
2023-06-11T18:20:59.761Z,14.47
2023-06-11T18:23:29.898Z,14.48
2023-06-11T18:26:00.145Z,14.38
2023-06-11T18:28:30.388Z,14.50
2023-06-11T18:31:00.623Z,14.51
2023-06-11T18:33:31.133Z,14.51
2023-06-11T18:36:01.387Z,14.61
2023-06-11T18:38:31.544Z,14.59
2023-06-11T18:41:01.728Z,14.61
2023-06-11T18:43:31.954Z,14.67
2023-06-11T18:46:02.498Z,14.70
2023-06-11T18:48:33.099Z,14.66
2023-06-11T18:51:02.910Z,14.59
2023-06-11T18:53:32.957Z,14.60
2023-06-11T18:56:03.117Z,14.59
2023-06-11T18:58:35.057Z,14.57
2023-06-11T19:01:05.488Z,14.61
2023-06-11T19:03:39.249Z,14.71
2023-06-11T19:06:10.205Z,14.61
2023-06-11T19:08:40.411Z,14.59
2023-06-11T19:11:10.576Z,14.67
2023-06-11T19:13:42.554Z,14.78
2023-06-11T19:16:12.698Z,14.68
2023-06-11T19:18:42.681Z,14.47
2023-06-11T19:21:12.795Z,14.32
2023-06-11T19:23:42.800Z,14.15
2023-06-11T19:26:14.903Z,14.15
2023-06-11T19:29:04.343Z,14.08
2023-06-11T19:31:34.812Z,14.06
2023-06-11T19:34:05.712Z,14.05
2023-06-11T19:36:35.900Z,14.01
2023-06-11T19:39:06.985Z,13.98
2023-06-11T19:41:38.201Z,13.92
2023-06-11T19:44:08.305Z,13.92
2023-06-11T19:46:38.451Z,13.88
2023-06-11T19:49:09.229Z,13.83
2023-06-11T19:51:40.907Z,13.79
2023-06-11T19:54:12.494Z,13.76
2023-06-11T19:56:43.173Z,13.69
2023-06-11T19:59:15.044Z,13.62
2023-06-11T20:01:45.243Z,13.61
2023-06-11T20:04:15.411Z,13.53
2023-06-11T20:06:46.970Z,13.53
2023-06-11T20:09:21.031Z,13.51
2023-06-11T20:11:56.341Z,13.50
2023-06-11T20:14:26.793Z,13.50
2023-06-11T20:16:57.298Z,13.55
2023-06-11T20:19:27.799Z,13.51
2023-06-11T20:22:02.461Z,13.48
2023-06-11T20:24:32.745Z,13.50
2023-06-11T20:27:02.670Z,13.53
2023-06-11T20:29:32.811Z,13.50
2023-06-11T20:32:02.799Z,13.48
2023-06-11T20:34:32.771Z,13.53
2023-06-11T20:37:02.546Z,13.50
2023-06-11T20:39:32.439Z,13.53
2023-06-11T20:42:02.507Z,13.50
2023-06-11T20:44:32.794Z,13.50
2023-06-11T20:47:03.037Z,13.53
2023-06-11T20:49:33.633Z,13.57
2023-06-11T20:52:03.565Z,13.57
2023-06-11T20:54:33.545Z,13.58
2023-06-11T20:57:04.069Z,13.58
2023-06-11T20:59:34.274Z,13.59
2023-06-11T21:02:04.324Z,13.47
2023-06-11T21:04:36.020Z,13.51
2023-06-11T21:07:08.218Z,13.55
2023-06-11T21:09:37.930Z,13.48
2023-06-11T21:12:08.966Z,13.47
2023-06-11T21:14:39.435Z,13.48
2023-06-11T21:17:10.463Z,13.51
2023-06-11T21:19:41.826Z,13.47
2023-06-11T21:22:12.028Z,13.50
2023-06-11T21:24:42.488Z,13.47
2023-06-11T21:27:12.759Z,13.48
2023-06-11T21:29:43.002Z,13.48
2023-06-11T21:32:13.265Z,13.41
2023-06-11T21:34:43.449Z,13.37
2023-06-11T21:37:13.580Z,13.37
2023-06-11T21:39:43.481Z,13.38
2023-06-11T21:42:13.401Z,13.37
2023-06-11T21:44:43.822Z,13.35
2023-06-11T21:47:13.967Z,13.35
2023-06-11T21:49:46.552Z,13.31
2023-06-11T21:52:19.741Z,13.33
2023-06-11T21:54:50.439Z,13.24
2023-06-11T21:57:21.325Z,13.30
2023-06-11T21:59:51.515Z,13.40
2023-06-11T22:02:21.979Z,13.35
2023-06-11T22:04:55.342Z,13.25
2023-06-11T22:07:25.440Z,13.21
2023-06-11T22:09:55.878Z,13.27
2023-06-11T22:12:25.983Z,13.28
2023-06-11T22:14:56.415Z,13.25
2023-06-11T22:17:34.665Z,13.30
2023-06-11T22:20:10.941Z,13.17
2023-06-11T22:22:42.954Z,13.23
2023-06-11T22:25:16.006Z,13.25
2023-06-11T22:27:49.476Z,13.23
2023-06-11T22:30:19.978Z,13.13
2023-06-11T22:32:54.670Z,13.06
2023-06-11T22:35:24.845Z,13.06
2023-06-11T22:37:56.411Z,13.14
2023-06-11T22:40:26.970Z,13.10
2023-06-11T22:42:57.091Z,13.06
2023-06-11T22:45:29.196Z,12.99
2023-06-11T22:47:59.165Z,13.03
2023-06-11T22:50:29.570Z,13.06
2023-06-11T22:53:01.800Z,13.06
2023-06-11T22:55:31.886Z,13.07
2023-06-11T22:58:02.223Z,13.15
2023-06-11T23:00:34.794Z,13.18
2023-06-11T23:03:07.839Z,13.14
2023-06-11T23:05:38.164Z,13.10
2023-06-11T23:08:10.210Z,13.06
2023-06-11T23:10:43.772Z,13.08
2023-06-11T23:13:15.054Z,13.08
2023-06-11T23:15:45.164Z,13.13
2023-06-11T23:18:19.458Z,13.06
2023-06-11T23:20:49.663Z,12.96
2023-06-11T23:23:25.137Z,12.99
2023-06-11T23:25:55.442Z,12.93
2023-06-11T23:28:27.237Z,12.86
2023-06-11T23:30:59.452Z,12.90
2023-06-11T23:33:32.781Z,12.89
2023-06-11T23:36:03.631Z,12.90
2023-06-11T23:38:34.123Z,12.94
2023-06-11T23:41:04.280Z,12.93
2023-06-11T23:43:34.381Z,12.89
2023-06-11T23:46:04.820Z,12.89
2023-06-11T23:48:35.469Z,12.92
2023-06-11T23:51:10.527Z,12.93
2023-06-11T23:53:40.589Z,12.94
2023-06-11T23:56:10.589Z,12.94
2023-06-11T23:58:40.688Z,12.89
